Time;durP1;ratioP1;P1;durP2;ratioP2;P2;SDS_P1;SDS_P2;PMS_P1;PMS_P2;Temp;Humidity;BMP_temperature;BMP_pressure;BME280_temperature;BME280_humidity;BME280_pressure;Samples;Min_cycle;Max_cycle;Signal;HPM_P1;HPM_P2
2022/02/09 05:46:26;;;;;;;24.27;11.22;;;;;;;0.40;91.32;99877.53;1649265;86;21157;-38
2022/02/09 05:51:22;;;;;;;26.48;11.90;;;;;;;0.46;91.65;99879.44;1681298;83;21021;-38
2022/02/09 06:01:38;;;;;;;23.02;10.55;;;;;;;0.58;91.64;99884.13;1693421;83;21125;-46
2022/02/09 06:04:06;;;;;;;29.10;12.58;;;;;;;0.61;91.78;99878.67;1684975;83;20986;-38
2022/02/09 06:06:37;;;;;;;25.25;10.80;;;;;;;0.63;91.77;99882.16;1676636;82;21049;-46
2022/02/09 06:09:07;;;;;;;25.82;10.82;;;;;;;0.68;91.81;99874.19;1674598;84;21514;-46
2022/02/09 06:11:48;;;;;;;23.35;11.43;;;;;;;0.70;91.82;99864.83;1688620;82;21041;-45
2022/02/09 06:14:41;;;;;;;24.25;10.05;;;;;;;0.72;91.82;99873.88;1658422;84;21063;-40
2022/02/09 06:19:46;;;;;;;22.02;10.18;;;;;;;0.74;91.89;99867.95;1691375;83;21160;-44
2022/02/09 06:22:11;;;;;;;21.90;10.68;;;;;;;0.78;91.95;99875.37;1674641;83;22012;-46
2022/02/09 06:24:59;;;;;;;26.27;10.60;;;;;;;0.77;91.98;99886.50;1656322;83;21025;-39
2022/02/09 06:27:52;;;;;;;24.50;9.50;;;;;;;0.77;92.04;99878.77;1659933;83;21088;-45
2022/02/09 06:30:26;;;;;;;19.32;10.05;;;;;;;0.77;92.13;99878.77;1688738;82;21128;-45
2022/02/09 06:33:20;;;;;;;23.27;9.03;;;;;;;0.80;92.20;99878.44;1687357;82;21512;-39
2022/02/09 06:36:46;;;;;;;21.62;9.78;;;;;;;0.82;92.31;99890.11;1685103;83;21559;-46
2022/02/09 06:40:04;;;;;;;18.20;9.20;;;;;;;0.84;92.30;99885.00;1687183;83;21021;-47
2022/02/09 06:42:43;;;;;;;19.30;10.63;;;;;;;0.85;92.44;99884.16;1684120;83;21478;-39
2022/02/09 06:45:19;;;;;;;20.27;10.48;;;;;;;0.88;92.68;99885.56;1645890;84;21042;-39
2022/02/09 06:48:30;;;;;;;17.75;9.28;;;;;;;0.91;92.86;99887.80;1676704;83;21521;-46
2022/02/09 06:51:13;;;;;;;17.98;8.85;;;;;;;0.94;92.90;99889.20;1675666;82;21620;-45
2022/02/09 06:53:45;;;;;;;18.85;9.75;;;;;;;0.98;93.01;99894.03;1671998;83;21018;-38
2022/02/09 06:56:06;;;;;;;19.67;9.28;;;;;;;0.98;93.12;99893.61;1670241;83;21088;-39
2022/02/09 07:01:03;;;;;;;32.28;12.60;;;;;;;1.02;93.34;99892.02;1673779;83;21625;-45
2022/02/09 07:03:33;;;;;;;24.18;9.98;;;;;;;1.04;93.53;99895.50;1678044;83;20954;-46
2022/02/09 07:06:00;;;;;;;23.27;10.90;;;;;;;1.07;93.45;99908.50;1676350;84;21148;-46
2022/02/09 07:08:27;;;;;;;27.58;11.05;;;;;;;1.05;93.45;99902.02;1673169;84;20978;-38
2022/02/09 07:10:55;;;;;;;21.42;9.75;;;;;;;1.04;93.60;99901.95;1667923;84;21600;-46
2022/02/09 07:13:22;;;;;;;21.52;10.60;;;;;;;1.04;93.73;99900.66;1674782;83;21515;-46
2022/02/09 07:16:26;;;;;;;21.97;11.33;;;;;;;1.05;93.95;99910.17;1677355;82;21057;-38
2022/02/09 07:29:46;;;;;;;23.17;11.40;;;;;;;1.13;94.48;99904.83;1677021;83;21029;-39
2022/02/09 07:33:02;;;;;;;;;;;;;;;1.16;94.61;99907.52;1678954;84;21089;-45
2022/02/09 07:36:21;;;;;;;23.92;11.18;;;;;;;1.20;94.70;99917.48;1672658;84;20562;-40
2022/02/09 07:39:26;;;;;;;21.10;10.78;;;;;;;1.23;94.78;99922.34;1672496;84;21555;-39
2022/02/09 07:42:54;;;;;;;24.23;10.85;;;;;;;1.24;94.81;99930.94;1652423;84;22034;-40
2022/02/09 07:46:03;;;;;;;21.23;11.05;;;;;;;1.27;94.97;99936.17;1670970;83;21060;-38
2022/02/09 07:51:10;;;;;;;22.55;11.12;;;;;;;1.34;95.16;99942.01;1678162;83;21714;-44
2022/02/09 07:53:25;;;;;;;26.12;11.90;;;;;;;1.38;95.21;99945.13;1684768;83;21045;-46
2022/02/09 07:55:54;;;;;;;26.52;11.30;;;;;;;1.42;95.22;99946.98;1665978;83;21152;-39
2022/02/09 07:58:49;;;;;;;25.32;13.28;;;;;;;1.46;95.06;99941.09;1670731;83;21715;-38
2022/02/09 08:01:39;;;;;;;25.48;12.23;;;;;;;1.52;95.03;99937.83;1659081;84;21672;-47
2022/02/09 08:04:08;;;;;;;24.75;10.72;;;;;;;1.61;94.92;99936.80;1691256;83;21021;-46
2022/02/09 08:06:36;;;;;;;20.02;10.58;;;;;;;1.67;94.58;99931.83;1687398;83;21598;-46
2022/02/09 08:09:10;;;;;;;20.72;10.80;;;;;;;1.72;94.46;99927.68;1661634;84;20988;-46
2022/02/09 08:12:32;;;;;;;21.15;11.55;;;;;;;1.77;94.35;99915.80;1687788;83;21092;-38
2022/02/09 08:27:38;;;;;;;26.80;11.43;;;;;;;2.08;93.16;99950.22;1683862;83;21438;-40
2022/02/09 08:32:53;;;;;;;17.20;10.55;;;;;;;2.17;93.08;99958.23;1677042;84;21352;-40
2022/02/09 08:35:12;;;;;;;25.05;10.72;;;;;;;2.23;92.64;99964.86;1685078;83;21504;-39
2022/02/09 08:37:39;;;;;;;21.00;9.93;;;;;;;2.24;92.48;99965.73;1687973;83;21580;-39
2022/02/09 08:40:09;;;;;;;15.40;9.33;;;;;;;2.28;92.35;99961.12;1686613;83;21439;-38
2022/02/09 08:42:38;;;;;;;18.77;10.45;;;;;;;2.38;92.35;99966.59;1683760;83;21446;-38
2022/02/09 08:45:08;;;;;;;19.40;10.70;;;;;;;2.52;91.94;99955.75;1676704;83;21593;-44
2022/02/09 08:47:35;;;;;;;16.35;9.55;;;;;;;2.69;91.68;99951.03;1673521;84;21025;-37
2022/02/09 08:50:02;;;;;;;18.67;10.82;;;;;;;2.84;91.14;99955.28;1680774;83;20990;-38
2022/02/09 08:52:28;;;;;;;17.50;10.68;;;;;;;2.93;90.20;99947.77;1695051;83;20993;-44
2022/02/09 08:54:55;;;;;;;17.87;10.28;;;;;;;2.97;89.41;99956.07;1665599;84;20977;-38
2022/02/09 08:57:22;;;;;;;19.48;10.82;;;;;;;2.99;89.56;99958.69;1674620;83;21607;-39
2022/02/09 08:59:50;;;;;;;15.15;9.73;;;;;;;2.97;89.01;99959.95;1696146;83;21593;-40
2022/02/09 09:02:20;;;;;;;17.73;9.08;;;;;;;2.91;88.79;99961.09;1688976;83;21057;-39
2022/02/09 09:04:55;;;;;;;14.93;9.58;;;;;;;2.86;88.89;99960.09;1694615;83;21001;-46
2022/02/09 09:07:29;;;;;;;17.48;9.70;;;;;;;2.83;89.85;99960.87;1696995;83;21580;-39
2022/02/09 09:10:15;;;;;;;20.15;8.70;;;;;;;2.91;89.69;99962.37;1694482;83;21017;-47
2022/02/09 10:03:58;;;;;;;17.70;9.23;;;;;;;2.73;92.51;99995.50;1693281;83;21076;-46
2022/02/09 10:33:30;;;;;;;16.60;10.32;;;;;;;2.60;94.70;100015.80;1695674;83;21465;-39
2022/02/09 10:41:14;;;;;;;16.50;10.08;;;;;;;2.62;95.60;100019.33;1693243;83;21079;-45
2022/02/09 10:44:26;;;;;;;18.82;11.30;;;;;;;2.58;96.33;100027.81;1698850;83;21638;-38
2022/02/09 10:46:59;;;;;;;17.55;11.15;;;;;;;2.56;96.80;100034.65;1697034;83;20997;-38
2022/02/09 10:50:44;;;;;;;17.50;10.48;;;;;;;2.54;97.03;100031.13;1695084;83;21069;-39
2022/02/09 10:53:16;;;;;;;16.35;10.20;;;;;;;2.54;97.18;100036.72;1687378;83;21082;-38
2022/02/09 10:56:27;;;;;;;13.95;9.43;;;;;;;2.53;97.63;100038.42;1693203;83;21538;-44
2022/02/09 10:59:15;;;;;;;16.85;10.35;;;;;;;2.54;98.02;100041.88;1680157;83;21591;-46
2022/02/09 11:02:36;;;;;;;15.83;9.23;;;;;;;2.55;98.72;100040.66;1697799;83;21052;-46
2022/02/09 11:05:39;;;;;;;13.60;9.90;;;;;;;2.56;99.18;100051.44;1679330;82;21010;-39
2022/02/09 11:09:40;;;;;;;15.80;9.30;;;;;;;2.56;99.85;100049.28;1675840;83;21243;-38
2022/02/09 11:13:48;;;;;;;16.80;9.68;;;;;;;2.56;100.00;100054.02;1691711;83;25444;-45
2022/02/09 11:19:53;;;;;;;13.93;9.90;;;;;;;2.57;100.00;100066.10;1674813;83;21542;-38
2022/02/09 11:22:43;;;;;;;14.25;9.13;;;;;;;2.57;100.00;100071.27;1677245;83;21052;-46
2022/02/09 11:25:18;;;;;;;12.93;8.80;;;;;;;2.55;99.92;100071.65;1689002;82;21467;-46
2022/02/09 11:27:54;;;;;;;14.00;9.30;;;;;;;2.54;99.85;100071.16;1691555;83;21001;-40
2022/02/09 11:30:29;;;;;;;12.95;8.30;;;;;;;2.56;99.92;100077.69;1647032;84;20988;-45
2022/02/09 11:36:26;;;;;;;18.07;8.80;;;;;;;2.63;99.54;100077.89;1692834;83;21040;-46
2022/02/09 11:38:43;;;;;;;12.78;8.38;;;;;;;2.66;99.16;100082.26;1666738;83;21120;-47
2022/02/09 11:41:15;;;;;;;10.70;7.95;;;;;;;2.70;98.86;100081.94;1666856;83;21085;-45
2022/02/09 11:43:53;;;;;;;14.10;9.50;;;;;;;2.76;98.88;100075.66;1688354;83;21344;-47
2022/02/09 11:46:51;;;;;;;11.43;7.65;;;;;;;2.86;98.55;100078.95;1685358;82;21085;-39
2022/02/09 11:52:06;;;;;;;12.75;7.90;;;;;;;3.05;97.93;100086.36;1680553;83;21068;-46
2022/02/09 12:08:56;;;;;;;14.10;8.10;;;;;;;3.53;95.87;100070.35;1672456;83;22381;-40
2022/02/09 12:19:49;;;;;;;11.55;7.00;;;;;;;3.82;92.65;100081.83;1670585;84;21018;-39
2022/02/09 12:27:19;;;;;;;9.83;6.45;;;;;;;3.93;91.75;100096.77;1676841;83;21423;-39
2022/02/09 12:30:50;;;;;;;10.18;6.35;;;;;;;4.04;91.14;100102.20;1669233;84;21019;-45
2022/02/09 12:34:12;;;;;;;12.40;6.75;;;;;;;4.08;90.16;100096.69;1675424;83;21546;-38
2022/02/09 12:37:26;;;;;;;11.40;6.62;;;;;;;4.08;89.99;100097.56;1677238;83;21469;-45
2022/02/09 12:43:57;;;;;;;11.50;6.17;;;;;;;4.07;89.17;100098.83;1667519;83;21535;-38
2022/02/09 12:46:45;;;;;;;8.93;5.00;;;;;;;4.06;89.03;100101.84;1688608;83;21045;-46
2022/02/09 12:49:26;;;;;;;9.30;5.62;;;;;;;4.06;88.99;100106.11;1687423;83;21033;-45
2022/02/09 12:52:10;;;;;;;9.40;5.97;;;;;;;4.05;88.69;100108.25;1685884;83;21080;-45
2022/02/09 12:55:11;;;;;;;9.23;5.60;;;;;;;4.04;88.50;100111.69;1592223;83;21704;-40
2022/02/09 13:01:05;;;;;;;12.73;5.92;;;;;;;4.02;88.34;100119.84;1641180;86;21190;-39
2022/02/09 13:04:01;;;;;;;9.68;5.53;;;;;;;3.99;87.81;100129.69;1628950;86;21462;-40
2022/02/09 13:06:46;;;;;;;10.35;6.15;;;;;;;3.98;87.75;100124.94;1635212;86;21045;-40
2022/02/09 13:09:31;;;;;;;7.75;5.35;;;;;;;3.97;87.66;100136.14;1635042;86;21021;-39
2022/02/09 13:12:04;;;;;;;13.22;5.75;;;;;;;3.97;87.33;100147.78;1638491;86;21381;-40
2022/02/09 13:14:47;;;;;;;13.03;7.03;;;;;;;3.95;87.46;100146.88;1629672;86;20995;-40
2022/02/09 13:18:28;;;;;;;10.43;5.50;;;;;;;3.95;87.47;100148.18;1644104;86;21651;-40
2022/02/09 14:52:17;;;;;;;11.80;3.40;;;;;;;3.22;86.22;100234.61;1659121;85;21131;-47
2022/02/09 14:54:55;;;;;;;8.53;3.27;;;;;;;3.20;85.95;100249.67;1656445;85;21015;-47
2022/02/09 14:57:18;;;;;;;8.23;3.05;;;;;;;3.20;85.79;100256.55;1685135;83;21573;-46
2022/02/09 15:02:14;;;;;;;7.08;3.08;;;;;;;3.15;84.69;100269.34;1691040;83;21592;-47
2022/02/09 15:05:06;;;;;;;4.87;2.52;;;;;;;3.12;84.29;100278.70;1690931;83;21005;-40
2022/02/09 15:07:24;;;;;;;6.67;2.30;;;;;;;3.11;83.95;100283.42;1690936;83;21112;-40
2022/02/09 15:12:26;;;;;;;4.87;2.40;;;;;;;3.08;83.26;100288.09;1649155;85;21463;-46
2022/02/09 15:15:04;;;;;;;4.55;2.00;;;;;;;3.07;82.72;100290.20;1652989;84;21016;-46
2022/02/09 15:22:34;;;;;;;;;;;;;;;3.01;81.58;100305.52;1633477;86;21027;-38
2022/02/09 15:24:59;;;;;;;6.00;2.40;;;;;;;2.98;81.58;100304.16;1645781;85;20114;-46
2022/02/09 15:27:26;;;;;;;4.65;1.80;;;;;;;2.95;81.63;100302.75;1649463;87;21558;-47
2022/02/09 15:29:53;;;;;;;7.58;2.08;;;;;;;2.93;81.43;100303.13;1626045;86;21055;-39
2022/02/09 15:32:31;;;;;;;8.80;1.98;;;;;;;2.91;81.48;100304.39;1683463;84;21068;-39
2022/02/09 15:35:02;;;;;;;7.22;2.15;;;;;;;2.90;81.63;100321.14;1676656;83;21537;-39
2022/02/09 15:37:35;;;;;;;5.53;2.47;;;;;;;2.87;81.49;100314.16;1681991;85;20970;-39
2022/02/09 15:39:56;;;;;;;4.42;1.90;;;;;;;2.87;81.59;100323.62;1682685;85;21160;-47
2022/02/09 15:42:50;;;;;;;4.97;1.60;;;;;;;2.84;81.74;100328.29;1683872;85;21136;-47
